createdAt,value
2023-05-25T00:01:20.852Z,3.10
2023-05-25T00:03:49.637Z,2.73
2023-05-25T00:06:20.064Z,2.73
2023-05-25T00:08:48.762Z,2.67
2023-05-25T00:11:19.503Z,2.90
2023-05-25T00:13:47.453Z,3.40
2023-05-25T00:16:15.517Z,3.00
2023-05-25T00:18:43.535Z,3.03
2023-05-25T00:21:11.790Z,2.77
2023-05-25T00:23:41.146Z,3.00
2023-05-25T00:26:09.181Z,3.27
2023-05-25T00:28:37.306Z,2.87
2023-05-25T00:31:05.441Z,2.87
2023-05-25T00:33:33.445Z,2.90
2023-05-25T00:36:03.332Z,3.47
2023-05-25T00:38:31.335Z,2.83
2023-05-25T00:41:00.716Z,3.50
2023-05-25T00:43:28.736Z,2.97
2023-05-25T00:45:57.412Z,3.70
2023-05-25T00:48:26.594Z,3.70
2023-05-25T00:50:58.015Z,3.63
2023-05-25T00:53:26.081Z,3.30
2023-05-25T00:56:01.426Z,3.17
2023-05-25T00:58:34.269Z,3.40
2023-05-25T01:01:06.356Z,2.67
2023-05-25T01:03:38.272Z,2.97
2023-05-25T01:06:10.875Z,3.33
2023-05-25T01:08:41.432Z,2.80
2023-05-25T01:11:13.160Z,3.10
2023-05-25T01:13:44.076Z,2.87
2023-05-25T01:16:12.206Z,2.80
2023-05-25T01:18:41.877Z,3.10
2023-05-25T01:21:18.166Z,2.93
2023-05-25T01:23:52.072Z,3.50
2023-05-25T01:26:21.853Z,3.30
2023-05-25T01:28:54.012Z,3.73
2023-05-25T01:31:23.779Z,3.00
2023-05-25T01:33:53.204Z,3.07
2023-05-25T01:36:22.577Z,3.10
2023-05-25T01:38:51.111Z,2.83
2023-05-25T01:41:19.187Z,2.90
2023-05-25T01:43:47.363Z,3.50
2023-05-25T01:46:21.951Z,3.13
2023-05-25T01:48:55.977Z,3.40
2023-05-25T01:51:33.441Z,3.67
2023-05-25T01:54:08.541Z,3.43
2023-05-25T01:56:38.163Z,3.70
2023-05-25T01:59:10.060Z,3.43
2023-05-25T02:01:38.979Z,3.50
2023-05-25T02:04:07.351Z,3.53
2023-05-25T02:06:38.383Z,3.57
2023-05-25T02:09:06.450Z,3.93
2023-05-25T02:11:34.492Z,4.90
2023-05-25T02:14:02.476Z,3.53
2023-05-25T02:16:30.970Z,3.67
2023-05-25T02:18:59.186Z,3.63
2023-05-25T02:21:28.210Z,3.27
2023-05-25T02:23:58.444Z,3.40
2023-05-25T02:26:26.623Z,3.47
2023-05-25T02:28:54.653Z,3.37
2023-05-25T02:31:22.641Z,3.53
2023-05-25T02:33:50.795Z,3.20
2023-05-25T02:36:18.834Z,3.10
2023-05-25T02:38:49.751Z,3.83
2023-05-25T02:41:20.020Z,3.43
2023-05-25T02:43:48.110Z,3.77
2023-05-25T02:46:16.215Z,3.20
2023-05-25T02:48:44.299Z,3.33
2023-05-25T02:51:12.306Z,2.83
2023-05-25T02:53:40.502Z,3.30
2023-05-25T02:56:10.307Z,3.10
2023-05-25T02:58:39.701Z,4.03
2023-05-25T03:01:10.640Z,3.70
2023-05-25T03:03:38.941Z,3.53
2023-05-25T03:06:07.678Z,3.97
2023-05-25T03:08:35.767Z,3.50
2023-05-25T03:11:03.772Z,4.20
2023-05-25T03:13:31.816Z,3.83
2023-05-25T03:16:01.138Z,3.60
2023-05-25T03:18:29.235Z,4.20
2023-05-25T03:20:57.212Z,5.07
2023-05-25T03:23:25.224Z,4.83
2023-05-25T03:25:53.210Z,5.40
2023-05-25T03:28:21.192Z,4.90
2023-05-25T03:30:49.445Z,4.53
2023-05-25T03:33:18.828Z,4.80
2023-05-25T03:35:47.119Z,4.50
2023-05-25T03:38:15.333Z,4.37
2023-05-25T03:40:43.316Z,4.50
2023-05-25T03:43:11.276Z,4.13
2023-05-25T03:45:39.226Z,5.30
2023-05-25T03:48:07.689Z,4.40
2023-05-25T03:50:37.030Z,4.87
2023-05-25T03:53:05.059Z,5.23
2023-05-25T03:55:33.037Z,4.77
2023-05-25T03:58:01.012Z,5.07
2023-05-25T04:00:29.003Z,5.70
2023-05-25T04:02:58.804Z,6.10
2023-05-25T04:05:27.622Z,5.47
2023-05-25T04:07:57.585Z,4.80
2023-05-25T04:10:25.576Z,5.30
2023-05-25T04:12:56.635Z,5.07
2023-05-25T04:15:25.048Z,4.73
2023-05-25T04:17:53.128Z,5.00
2023-05-25T04:20:21.346Z,5.70
2023-05-25T04:22:50.032Z,5.60
2023-05-25T04:25:19.921Z,6.03
2023-05-25T04:27:49.011Z,5.70
2023-05-25T04:30:17.131Z,5.57
2023-05-25T04:32:46.582Z,5.50
2023-05-25T04:35:15.465Z,5.23
2023-05-25T04:37:43.496Z,5.47
2023-05-25T04:40:14.189Z,6.30
2023-05-25T04:42:44.954Z,5.53
2023-05-25T04:45:17.645Z,5.97
2023-05-25T04:47:45.961Z,5.60
2023-05-25T04:50:14.048Z,6.30
2023-05-25T04:52:42.029Z,5.77
2023-05-25T04:55:10.611Z,5.37
2023-05-25T04:57:38.602Z,6.20
2023-05-25T05:00:10.932Z,6.17
2023-05-25T05:02:38.986Z,5.83
2023-05-25T05:05:07.809Z,6.40
2023-05-25T05:07:35.986Z,5.60
2023-05-25T05:10:04.522Z,5.90
2023-05-25T05:12:32.486Z,6.20
2023-05-25T05:15:00.621Z,6.30
2023-05-25T05:17:31.119Z,6.63
2023-05-25T05:19:59.460Z,5.70
2023-05-25T05:22:27.513Z,5.57
2023-05-25T05:24:55.604Z,5.80
2023-05-25T05:27:23.609Z,5.27
2023-05-25T05:29:51.611Z,4.63
2023-05-25T05:32:19.662Z,5.03
2023-05-25T05:34:49.189Z,5.30
2023-05-25T05:37:17.270Z,5.90
2023-05-25T05:39:45.308Z,5.57
2023-05-25T05:42:13.318Z,5.07
2023-05-25T05:44:41.408Z,5.30
2023-05-25T05:47:09.564Z,4.80
2023-05-25T05:49:39.377Z,4.97
2023-05-25T05:52:10.872Z,5.20
2023-05-25T05:54:39.105Z,5.47
2023-05-25T05:57:07.622Z,4.83
2023-05-25T05:59:35.999Z,4.90
2023-05-25T06:02:04.409Z,4.50
2023-05-25T06:04:32.659Z,4.33
2023-05-25T06:07:00.840Z,4.33
2023-05-25T06:09:30.200Z,4.27
2023-05-25T06:11:58.160Z,4.07
2023-05-25T06:14:28.284Z,4.60
2023-05-25T06:16:56.809Z,4.03
2023-05-25T06:19:24.867Z,3.90
2023-05-25T06:21:52.835Z,4.13
2023-05-25T06:24:20.920Z,3.93
2023-05-25T06:26:50.650Z,4.27
2023-05-25T06:29:18.645Z,3.30
2023-05-25T06:31:46.868Z,3.27
2023-05-25T06:34:14.874Z,3.63
2023-05-25T06:36:42.845Z,3.43
2023-05-25T06:39:10.847Z,3.40
2023-05-25T06:41:40.458Z,3.33
2023-05-25T06:44:09.962Z,2.80
2023-05-25T06:46:39.260Z,2.73
2023-05-25T06:49:07.681Z,2.53
2023-05-25T06:51:35.734Z,3.50
2023-05-25T06:54:03.865Z,2.80
2023-05-25T06:56:31.821Z,3.33
2023-05-25T06:58:59.761Z,3.13
2023-05-25T07:01:29.147Z,3.37
2023-05-25T07:03:57.104Z,3.30
2023-05-25T07:06:25.288Z,3.30
2023-05-25T07:08:53.249Z,3.27
2023-05-25T07:11:22.078Z,3.33
2023-05-25T07:13:50.244Z,3.67
2023-05-25T07:16:18.342Z,2.87
2023-05-25T07:18:47.881Z,3.60
2023-05-25T07:21:15.842Z,2.80
2023-05-25T07:23:43.913Z,3.10
2023-05-25T07:26:12.080Z,3.30
2023-05-25T07:28:40.144Z,3.33
2023-05-25T07:31:08.223Z,3.20
2023-05-25T07:33:36.303Z,2.73
2023-05-25T07:36:06.297Z,2.43
2023-05-25T07:38:34.299Z,2.90
2023-05-25T07:41:02.294Z,3.30
2023-05-25T07:43:30.472Z,2.93
2023-05-25T07:45:59.081Z,2.90
2023-05-25T07:48:27.125Z,2.90
2023-05-25T07:50:56.273Z,3.10
2023-05-25T07:53:26.546Z,2.73
2023-05-25T07:55:54.690Z,2.77
2023-05-25T07:58:22.742Z,2.53
2023-05-25T08:00:51.796Z,2.23
2023-05-25T08:03:26.245Z,2.10
2023-05-25T08:06:00.192Z,2.53
2023-05-25T08:08:29.540Z,2.53
2023-05-25T08:10:57.564Z,2.83
2023-05-25T08:13:26.520Z,2.40
2023-05-25T08:15:54.540Z,2.80
2023-05-25T08:18:22.563Z,2.57
2023-05-25T08:20:50.648Z,2.00
2023-05-25T08:23:19.265Z,2.17
2023-05-25T08:25:48.868Z,2.43
2023-05-25T08:28:16.951Z,2.53
2023-05-25T08:30:46.613Z,2.30
2023-05-25T08:33:14.758Z,2.77
2023-05-25T08:35:43.617Z,2.37
2023-05-25T08:38:11.766Z,2.53
2023-05-25T08:40:43.747Z,2.73
2023-05-25T08:43:15.799Z,2.73
2023-05-25T08:45:47.250Z,3.13
2023-05-25T08:48:39.497Z,3.37
2023-05-25T08:51:10.754Z,2.90
2023-05-25T08:53:41.234Z,3.40
2023-05-25T08:56:14.893Z,3.57
2023-05-25T08:58:55.948Z,4.20
2023-05-25T09:01:37.323Z,3.87
2023-05-25T09:04:09.731Z,3.60
2023-05-25T09:06:38.741Z,5.10
2023-05-25T09:09:07.961Z,4.20
2023-05-25T09:11:39.963Z,4.40
2023-05-25T09:14:10.547Z,3.17
2023-05-25T09:16:39.899Z,3.37
2023-05-25T09:19:07.990Z,3.37
2023-05-25T09:21:36.889Z,2.90
2023-05-25T09:24:05.899Z,2.97
2023-05-25T09:26:34.916Z,3.27
2023-05-25T09:29:03.850Z,3.43
2023-05-25T09:31:35.469Z,3.10
2023-05-25T09:34:03.855Z,3.90
2023-05-25T09:36:32.412Z,4.37
2023-05-25T09:39:01.056Z,4.13
2023-05-25T09:41:29.938Z,3.87
2023-05-25T09:44:10.518Z,4.53
2023-05-25T09:46:41.676Z,3.93
2023-05-25T09:49:10.503Z,3.90
2023-05-25T09:51:38.909Z,3.60
2023-05-25T09:54:11.078Z,3.50
2023-05-25T09:56:39.125Z,3.80
2023-05-25T09:59:07.868Z,3.50
2023-05-25T10:01:36.760Z,3.70
2023-05-25T10:04:08.899Z,3.23
2023-05-25T10:06:39.641Z,3.53
2023-05-25T10:09:10.024Z,3.67
2023-05-25T10:11:44.464Z,3.90
2023-05-25T10:14:15.961Z,3.60
2023-05-25T10:16:46.961Z,3.77
2023-05-25T10:19:34.417Z,3.57
2023-05-25T10:22:08.255Z,3.00
2023-05-25T10:24:42.845Z,2.80
2023-05-25T10:27:26.346Z,3.00
2023-05-25T10:29:57.767Z,3.20
2023-05-25T10:32:26.723Z,3.40
2023-05-25T10:34:58.089Z,3.20
2023-05-25T10:37:28.635Z,3.40
2023-05-25T10:39:58.563Z,3.20
2023-05-25T10:42:27.957Z,3.20
2023-05-25T10:44:56.682Z,3.17
2023-05-25T10:47:25.373Z,2.80
2023-05-25T10:49:57.961Z,3.33
2023-05-25T10:52:29.768Z,2.97
2023-05-25T10:54:58.686Z,3.10
2023-05-25T10:57:27.289Z,2.73
2023-05-25T11:00:01.582Z,3.33
2023-05-25T11:02:30.345Z,3.17
2023-05-25T11:05:32.357Z,3.70
2023-05-25T11:08:03.109Z,3.40
2023-05-25T11:10:45.106Z,2.90
2023-05-25T11:13:40.939Z,3.97
2023-05-25T11:16:25.363Z,4.13
2023-05-25T11:18:57.446Z,2.97
2023-05-25T11:21:44.010Z,4.10
2023-05-25T11:24:18.425Z,4.10
2023-05-25T11:27:00.949Z,3.87
2023-05-25T11:29:33.108Z,3.90
2023-05-25T11:32:01.260Z,3.80
2023-05-25T11:34:32.033Z,4.43
2023-05-25T11:37:02.517Z,3.13
2023-05-25T11:39:32.683Z,3.37
2023-05-25T11:42:06.729Z,3.73
2023-05-25T11:44:36.968Z,3.57
2023-05-25T11:47:09.981Z,3.73
2023-05-25T11:49:41.742Z,3.13
2023-05-25T11:52:10.524Z,3.77
2023-05-25T11:54:41.941Z,3.97
2023-05-25T11:57:25.008Z,3.93
2023-05-25T11:59:54.678Z,3.53
2023-05-25T12:02:23.477Z,3.20
2023-05-25T12:04:56.134Z,3.27
2023-05-25T12:07:24.940Z,3.17
2023-05-25T12:10:05.108Z,3.23
2023-05-25T12:12:39.551Z,3.60
2023-05-25T12:15:08.981Z,3.07
2023-05-25T12:17:37.450Z,3.77
2023-05-25T12:20:07.638Z,2.73
2023-05-25T12:22:36.100Z,3.70
2023-05-25T12:25:06.976Z,3.60
2023-05-25T12:27:35.245Z,3.80
2023-05-25T12:30:03.393Z,3.57
2023-05-25T12:32:31.554Z,3.23
2023-05-25T12:35:06.834Z,3.50
2023-05-25T12:37:35.198Z,3.30
2023-05-25T12:40:03.563Z,3.23
2023-05-25T12:42:34.387Z,3.47
2023-05-25T12:45:02.441Z,4.40
2023-05-25T12:47:32.281Z,3.50
2023-05-25T12:50:14.681Z,3.23
2023-05-25T12:52:44.376Z,3.73
2023-05-25T12:55:25.687Z,3.40
2023-05-25T12:57:55.805Z,4.07
2023-05-25T13:00:25.611Z,3.43
2023-05-25T13:02:54.619Z,3.83
2023-05-25T13:05:24.210Z,4.20
2023-05-25T13:07:53.102Z,4.47
2023-05-25T13:10:21.362Z,3.37
2023-05-25T13:12:50.945Z,4.20
2023-05-25T13:15:22.042Z,3.77
2023-05-25T13:17:51.572Z,3.73
2023-05-25T13:20:21.556Z,3.80
2023-05-25T13:22:51.248Z,3.90
2023-05-25T13:25:21.933Z,3.73
2023-05-25T13:27:51.536Z,4.23
2023-05-25T13:30:22.215Z,4.80
2023-05-25T13:32:51.924Z,3.90
2023-05-25T13:35:34.148Z,3.80
2023-05-25T13:38:02.299Z,3.70
2023-05-25T13:40:30.341Z,3.87
2023-05-25T13:42:58.377Z,4.47
2023-05-25T13:45:28.176Z,3.60
2023-05-25T13:47:56.300Z,4.10
2023-05-25T13:50:24.400Z,4.27
2023-05-25T13:52:52.977Z,4.23
2023-05-25T13:55:21.048Z,4.10
2023-05-25T13:57:49.034Z,4.03
2023-05-25T14:00:17.439Z,4.37
2023-05-25T14:02:46.818Z,4.67
2023-05-25T14:05:14.895Z,4.27
2023-05-25T14:07:44.527Z,4.47
2023-05-25T14:10:13.212Z,4.00
2023-05-25T14:12:42.216Z,4.63
2023-05-25T14:15:11.187Z,4.00
2023-05-25T14:17:39.351Z,4.33
2023-05-25T14:20:09.920Z,5.03
2023-05-25T14:22:37.940Z,3.63
2023-05-25T14:25:06.828Z,4.10
2023-05-25T14:27:34.847Z,4.00
2023-05-25T14:30:02.823Z,3.90
2023-05-25T14:32:30.834Z,3.73
2023-05-25T14:34:58.804Z,3.90
2023-05-25T14:37:28.150Z,4.10
2023-05-25T14:39:56.103Z,3.90
2023-05-25T14:42:24.128Z,4.17
2023-05-25T14:44:52.173Z,4.20
2023-05-25T14:47:20.283Z,4.30
2023-05-25T14:49:48.423Z,3.90
2023-05-25T14:52:16.538Z,5.10
2023-05-25T14:54:45.955Z,4.70
2023-05-25T14:57:16.198Z,4.13
2023-05-25T14:59:44.365Z,4.17
2023-05-25T15:02:12.415Z,3.80
2023-05-25T15:04:40.470Z,3.37
2023-05-25T15:07:08.840Z,4.07
2023-05-25T15:09:37.699Z,4.00
2023-05-25T15:12:08.068Z,4.07
2023-05-25T15:14:39.868Z,4.63
2023-05-25T15:17:08.079Z,4.17
2023-05-25T15:19:36.050Z,4.37
2023-05-25T15:22:04.193Z,4.20
2023-05-25T15:24:32.191Z,4.30
2023-05-25T15:27:00.214Z,3.97
2023-05-25T15:29:29.575Z,4.07
2023-05-25T15:31:57.596Z,4.03
2023-05-25T15:34:25.641Z,4.13
2023-05-25T15:36:53.616Z,4.20
2023-05-25T15:39:21.630Z,4.20
2023-05-25T15:41:49.647Z,4.63
2023-05-25T15:44:17.623Z,4.43
2023-05-25T15:46:46.971Z,3.63
2023-05-25T15:49:15.062Z,4.27
2023-05-25T15:51:44.415Z,4.30
2023-05-25T15:54:14.688Z,4.77
2023-05-25T15:56:42.998Z,4.43
2023-05-25T15:59:12.293Z,4.10
2023-05-25T16:01:40.645Z,4.40
2023-05-25T16:04:10.323Z,4.37
2023-05-25T16:06:38.548Z,3.90
2023-05-25T16:09:06.759Z,3.63
2023-05-25T16:11:34.825Z,4.43
2023-05-25T16:14:02.889Z,5.00
2023-05-25T16:16:30.983Z,5.10
2023-05-25T16:18:59.296Z,4.53
2023-05-25T16:21:28.799Z,4.37
2023-05-25T16:23:56.908Z,4.80
2023-05-25T16:26:24.908Z,4.43
2023-05-25T16:28:54.017Z,4.77
2023-05-25T16:31:22.110Z,4.67
2023-05-25T16:33:50.176Z,4.83
2023-05-25T16:36:18.180Z,5.17
2023-05-25T16:38:47.536Z,4.53
2023-05-25T16:41:15.528Z,4.17
2023-05-25T16:43:43.559Z,4.37
2023-05-25T16:46:11.633Z,5.00
2023-05-25T16:48:39.646Z,4.53
2023-05-25T16:51:08.227Z,4.57
2023-05-25T16:53:36.220Z,4.30
2023-05-25T16:56:05.956Z,4.50
2023-05-25T16:58:34.000Z,4.17
2023-05-25T17:01:02.035Z,4.80
2023-05-25T17:03:30.175Z,4.27
2023-05-25T17:05:58.203Z,4.40
2023-05-25T17:08:26.367Z,4.40
2023-05-25T17:10:54.407Z,5.20
2023-05-25T17:13:23.814Z,4.30
2023-05-25T17:15:51.864Z,4.67
2023-05-25T17:18:19.848Z,3.93
2023-05-25T17:20:47.884Z,4.37
2023-05-25T17:23:17.029Z,4.40
2023-05-25T17:25:45.250Z,4.50
2023-05-25T17:28:13.331Z,4.30
2023-05-25T17:30:42.695Z,4.10
2023-05-25T17:33:10.706Z,4.17
2023-05-25T17:35:38.732Z,4.63
2023-05-25T17:38:06.919Z,4.37
2023-05-25T17:40:34.937Z,4.10
2023-05-25T17:43:02.964Z,4.63
2023-05-25T17:45:31.087Z,4.03
2023-05-25T17:48:00.532Z,4.10
2023-05-25T17:50:28.855Z,4.23
2023-05-25T17:52:56.961Z,4.33
2023-05-25T17:55:24.953Z,5.00
2023-05-25T17:57:52.887Z,4.83
2023-05-25T18:00:23.071Z,4.70
2023-05-25T18:02:51.930Z,4.90
2023-05-25T18:05:21.556Z,4.47
2023-05-25T18:07:49.543Z,4.50
2023-05-25T18:10:17.607Z,4.60
2023-05-25T18:12:46.211Z,4.00
2023-05-25T18:15:14.277Z,4.27
2023-05-25T18:17:42.346Z,4.93
2023-05-25T18:20:11.516Z,4.00
2023-05-25T18:22:41.368Z,4.13
2023-05-25T18:25:10.138Z,4.43
2023-05-25T18:27:38.150Z,4.37
2023-05-25T18:30:07.225Z,3.87
2023-05-25T18:32:35.242Z,4.30
2023-05-25T18:35:03.664Z,4.70
2023-05-25T18:37:34.322Z,3.87
2023-05-25T18:40:03.761Z,3.70
2023-05-25T18:42:31.846Z,4.13
2023-05-25T18:44:59.881Z,4.53
2023-05-25T18:47:27.937Z,4.17
2023-05-25T18:49:56.288Z,5.37
2023-05-25T18:52:24.430Z,4.00
2023-05-25T18:54:52.446Z,4.60
2023-05-25T18:57:21.819Z,4.47
2023-05-25T18:59:49.853Z,4.70
2023-05-25T19:02:17.945Z,4.10
2023-05-25T19:04:45.946Z,4.23
2023-05-25T19:07:14.183Z,4.23
2023-05-25T19:09:42.292Z,3.80
2023-05-25T19:12:10.303Z,4.73
2023-05-25T19:14:39.638Z,4.17
2023-05-25T19:17:07.765Z,4.60
2023-05-25T19:19:36.014Z,4.17
2023-05-25T19:22:04.028Z,4.43
2023-05-25T19:24:32.000Z,3.60
2023-05-25T19:27:00.070Z,4.13
2023-05-25T19:29:28.103Z,4.63
2023-05-25T19:31:57.509Z,4.10
2023-05-25T19:34:25.546Z,4.77
2023-05-25T19:36:59.998Z,4.20
2023-05-25T19:39:38.473Z,3.50
2023-05-25T19:42:09.433Z,4.10
2023-05-25T19:44:40.482Z,3.50
2023-05-25T19:47:10.079Z,3.83
2023-05-25T19:49:38.057Z,4.00
2023-05-25T19:52:06.755Z,3.97
2023-05-25T19:54:34.854Z,4.80
2023-05-25T19:57:03.003Z,3.87
2023-05-25T19:59:31.456Z,4.83
2023-05-25T20:02:01.682Z,3.50
2023-05-25T20:04:38.622Z,3.97
2023-05-25T20:07:07.983Z,3.30
2023-05-25T20:09:38.557Z,4.00
2023-05-25T20:12:07.556Z,3.60
2023-05-25T20:14:35.553Z,4.13
2023-05-25T20:17:03.838Z,4.30
2023-05-25T20:19:33.202Z,3.90
2023-05-25T20:22:01.818Z,4.23
2023-05-25T20:24:29.794Z,3.23
2023-05-25T20:26:57.853Z,4.20
2023-05-25T20:29:25.860Z,3.97
2023-05-25T20:31:54.377Z,4.20
2023-05-25T20:34:22.445Z,3.80
2023-05-25T20:36:51.770Z,3.97
2023-05-25T20:39:20.195Z,3.53
2023-05-25T20:41:48.113Z,3.80
2023-05-25T20:44:16.191Z,3.90
2023-05-25T20:46:44.261Z,4.07
2023-05-25T20:49:12.297Z,4.03
2023-05-25T20:51:40.307Z,4.50
2023-05-25T20:54:09.804Z,4.20
2023-05-25T20:56:37.796Z,4.57
2023-05-25T20:59:05.805Z,3.90
2023-05-25T21:01:33.821Z,3.43
2023-05-25T21:04:02.071Z,4.33
2023-05-25T21:06:30.222Z,4.87
2023-05-25T21:08:58.235Z,4.23
2023-05-25T21:11:28.515Z,4.30
2023-05-25T21:13:56.878Z,4.20
2023-05-25T21:16:25.003Z,3.90
2023-05-25T21:18:53.024Z,4.27
2023-05-25T21:21:21.130Z,5.83
2023-05-25T21:23:49.174Z,4.43
2023-05-25T21:26:17.271Z,5.77
2023-05-25T21:28:46.679Z,5.13
2023-05-25T21:31:14.736Z,4.60
2023-05-25T21:33:42.746Z,4.40
2023-05-25T21:36:10.771Z,4.30
2023-05-25T21:38:38.728Z,4.20
2023-05-25T21:41:07.087Z,3.80
2023-05-25T21:43:35.124Z,3.97
2023-05-25T21:46:04.659Z,4.20
2023-05-25T21:48:32.607Z,3.80
2023-05-25T21:51:00.660Z,4.43
2023-05-25T21:53:28.664Z,4.17
2023-05-25T21:55:56.681Z,4.17
2023-05-25T21:58:24.680Z,4.33
2023-05-25T22:00:52.855Z,3.67
2023-05-25T22:03:22.339Z,4.07
2023-05-25T22:05:50.314Z,4.27
2023-05-25T22:08:18.329Z,4.63
2023-05-25T22:10:46.411Z,4.47
2023-05-25T22:13:14.431Z,4.97
2023-05-25T22:15:42.479Z,4.03
2023-05-25T22:18:10.721Z,3.60
2023-05-25T22:20:42.064Z,3.60
2023-05-25T22:23:12.847Z,4.20
2023-05-25T22:25:41.365Z,3.87
2023-05-25T22:28:09.515Z,4.70
2023-05-25T22:30:37.533Z,4.07
2023-05-25T22:33:05.589Z,3.80
2023-05-25T22:35:33.579Z,3.87
2023-05-25T22:38:02.910Z,3.80
2023-05-25T22:40:30.933Z,4.00
2023-05-25T22:42:58.979Z,4.07
2023-05-25T22:45:27.412Z,4.30
2023-05-25T22:47:55.482Z,4.87
2023-05-25T22:50:23.515Z,4.27
2023-05-25T22:52:51.546Z,3.70
2023-05-25T22:55:21.601Z,3.63
2023-05-25T22:57:49.606Z,4.63
2023-05-25T23:00:18.086Z,4.87
2023-05-25T23:02:46.184Z,4.17
2023-05-25T23:05:14.242Z,4.23
2023-05-25T23:07:43.703Z,3.90
2023-05-25T23:10:12.296Z,4.50
2023-05-25T23:12:41.875Z,4.23
2023-05-25T23:15:11.063Z,3.90
2023-05-25T23:17:39.066Z,5.33
2023-05-25T23:20:09.273Z,4.20
2023-05-25T23:22:37.323Z,4.33
2023-05-25T23:25:05.765Z,4.03
2023-05-25T23:27:33.776Z,4.57
2023-05-25T23:30:03.152Z,4.30
2023-05-25T23:32:31.267Z,4.50
2023-05-25T23:34:59.342Z,4.13
2023-05-25T23:37:28.282Z,4.03
2023-05-25T23:39:56.376Z,3.90
2023-05-25T23:42:24.348Z,4.67
2023-05-25T23:44:52.356Z,3.80
2023-05-25T23:47:21.638Z,4.17
2023-05-25T23:49:49.629Z,4.83
2023-05-25T23:52:17.678Z,3.93
2023-05-25T23:54:45.683Z,4.57
2023-05-25T23:57:13.727Z,4.23
2023-05-25T23:59:41.722Z,4.37
